createdAt,value
2019-06-20T00:00:26.831Z,83.03
2019-06-20T00:01:26.830Z,83.03
2019-06-20T00:02:26.809Z,83.53
2019-06-20T00:03:26.804Z,83.53
2019-06-20T00:04:26.797Z,83.33
2019-06-20T00:05:26.803Z,83.67
2019-06-20T00:06:26.791Z,83.83
2019-06-20T00:07:26.757Z,83.73
2019-06-20T00:08:26.747Z,84.03
2019-06-20T00:09:26.736Z,84.13
2019-06-20T00:10:26.751Z,84.07
2019-06-20T00:11:26.724Z,84.07
2019-06-20T00:12:26.700Z,84.07
2019-06-20T00:13:26.688Z,83.97
2019-06-20T00:14:26.678Z,84.17
2019-06-20T00:15:26.690Z,83.97
2019-06-20T00:16:26.668Z,84.47
2019-06-20T00:17:26.645Z,83.76
2019-06-20T00:18:26.647Z,83.93
2019-06-20T00:19:26.632Z,84.03
2019-06-20T00:20:26.634Z,83.43
2019-06-20T00:21:26.597Z,83.43
2019-06-20T00:22:26.605Z,83.47
2019-06-20T00:23:26.581Z,83.97
2019-06-20T00:24:26.566Z,83.97
2019-06-20T00:25:26.592Z,83.47
2019-06-20T00:26:26.580Z,83.97
2019-06-20T00:27:26.602Z,83.76
2019-06-20T00:28:26.526Z,83.76
2019-06-20T00:29:26.517Z,83.76
2019-06-20T00:32:27.599Z,84.07
2019-06-20T00:33:26.477Z,84.17
2019-06-20T00:34:26.466Z,83.67
2019-06-20T00:35:26.461Z,83.57
2019-06-20T00:36:26.483Z,83.87
2019-06-20T00:37:26.417Z,83.67
2019-06-20T00:38:26.418Z,84.07
2019-06-20T00:39:26.402Z,84.17
2019-06-20T00:40:26.394Z,84.27
2019-06-20T00:41:26.586Z,83.67
2019-06-20T00:42:26.367Z,84.17
2019-06-20T00:43:26.360Z,84.01
2019-06-20T00:44:26.343Z,84.47
2019-06-20T00:45:26.338Z,84.37
2019-06-20T00:46:26.367Z,83.57
2019-06-20T00:47:26.319Z,84.07
2019-06-20T00:48:26.301Z,83.87
2019-06-20T00:49:26.290Z,83.87
2019-06-20T00:50:26.278Z,83.97
2019-06-20T00:51:26.265Z,83.87
2019-06-20T00:52:26.287Z,84.07
2019-06-20T00:53:26.245Z,84.01
2019-06-20T00:54:26.235Z,83.91
2019-06-20T00:55:26.238Z,83.91
2019-06-20T00:56:26.247Z,84.11
2019-06-20T00:57:26.199Z,84.61
2019-06-20T00:58:26.188Z,83.97
2019-06-20T00:59:26.182Z,83.91
2019-06-20T01:00:26.170Z,84.41
2019-06-20T01:01:26.157Z,83.91
2019-06-20T01:02:26.167Z,84.31
2019-06-20T01:03:26.136Z,84.51
2019-06-20T01:04:26.126Z,84.31
2019-06-20T01:05:26.113Z,84.35
2019-06-20T01:06:26.106Z,84.65
2019-06-20T01:07:26.118Z,84.69
2019-06-20T01:08:26.089Z,84.80
2019-06-20T01:09:26.069Z,85.66
2019-06-20T01:10:26.055Z,85.56
2019-06-20T01:11:26.062Z,84.55
2019-06-20T01:12:26.058Z,84.75
2019-06-20T01:13:33.723Z,84.81
2019-06-20T01:14:27.012Z,84.21
2019-06-20T01:15:26.027Z,84.15
2019-06-20T01:16:26.008Z,84.15
2019-06-20T01:17:26.020Z,84.45
2019-06-20T01:18:25.972Z,84.21
2019-06-20T01:19:25.967Z,84.05
2019-06-20T01:20:25.959Z,84.35
2019-06-20T01:21:25.933Z,84.01
2019-06-20T01:22:25.944Z,84.15
2019-06-20T01:23:25.914Z,84.35
2019-06-20T01:24:25.902Z,84.55
2019-06-20T01:25:25.890Z,85.10
2019-06-20T01:26:25.880Z,84.95
2019-06-20T01:27:25.896Z,85.50
2019-06-20T01:28:25.859Z,85.60
2019-06-20T01:29:25.847Z,85.80
2019-06-20T01:30:25.837Z,85.20
2019-06-20T01:31:25.824Z,85.20
2019-06-20T01:32:25.842Z,85.20
2019-06-20T01:33:25.824Z,85.70
2019-06-20T01:34:25.800Z,85.50
2019-06-20T01:35:25.782Z,85.40
2019-06-20T01:36:25.767Z,85.50
2019-06-20T01:37:25.789Z,85.40
2019-06-20T01:38:25.791Z,85.80
2019-06-20T01:39:25.754Z,85.00
2019-06-20T01:40:25.725Z,84.75
2019-06-20T01:41:25.720Z,84.49
2019-06-20T01:42:25.723Z,84.69
2019-06-20T01:43:25.720Z,84.39
2019-06-20T01:44:25.684Z,84.45
2019-06-20T01:45:25.679Z,84.69
2019-06-20T01:46:25.656Z,85.20
2019-06-20T01:47:25.650Z,85.00
2019-06-20T01:48:25.664Z,84.85
2019-06-20T01:49:25.630Z,84.85
2019-06-20T01:50:25.660Z,84.55
2019-06-20T01:51:25.622Z,84.55
2019-06-20T01:52:25.593Z,83.95
2019-06-20T01:53:25.604Z,84.31
2019-06-20T01:54:25.577Z,84.15
2019-06-20T01:55:25.573Z,84.15
2019-06-20T01:56:25.618Z,84.25
2019-06-20T01:57:25.541Z,83.84
2019-06-20T01:58:25.559Z,83.91
2019-06-20T01:59:25.533Z,84.31
2019-06-20T02:00:25.510Z,83.91
2019-06-20T02:01:25.495Z,83.61
2019-06-20T02:02:25.483Z,83.71
2019-06-20T02:03:25.498Z,84.01
2019-06-20T02:04:25.473Z,83.40
2019-06-20T02:05:25.461Z,83.51
2019-06-20T02:06:25.437Z,84.25
2019-06-20T02:07:28.107Z,84.05
2019-06-20T02:08:25.467Z,84.05
2019-06-20T02:09:25.407Z,83.81
2019-06-20T02:10:25.396Z,83.95
2019-06-20T02:11:25.383Z,84.05
2019-06-20T02:12:25.379Z,84.35
2019-06-20T02:13:25.435Z,84.55
2019-06-20T02:14:25.357Z,84.15
2019-06-20T02:15:25.348Z,84.39
2019-06-20T02:16:25.328Z,85.00
2019-06-20T02:17:25.318Z,85.00
2019-06-20T02:18:25.335Z,85.70
2019-06-20T02:19:25.299Z,85.64
2019-06-20T02:20:25.292Z,85.20
2019-06-20T02:21:25.278Z,84.83
2019-06-20T02:22:25.278Z,85.44
2019-06-20T02:23:25.250Z,85.64
2019-06-20T02:24:25.265Z,85.24
2019-06-20T02:25:25.231Z,85.94
2019-06-20T02:26:25.222Z,86.04
2019-06-20T02:27:25.212Z,85.94
2019-06-20T02:28:25.198Z,86.15
2019-06-20T02:29:25.212Z,85.74
2019-06-20T02:30:25.177Z,85.84
2019-06-20T02:31:25.172Z,86.65
2019-06-20T02:32:25.163Z,85.84
2019-06-20T02:33:25.143Z,86.24
2019-06-20T02:34:25.227Z,86.15
2019-06-20T02:35:25.123Z,85.94
2019-06-20T02:36:25.111Z,85.74
2019-06-20T02:37:25.106Z,85.54
2019-06-20T02:38:25.090Z,86.15
2019-06-20T02:39:25.131Z,86.35
2019-06-20T02:40:25.070Z,86.44
2019-06-20T02:41:25.054Z,86.35
2019-06-20T02:42:25.043Z,86.75
2019-06-20T02:43:25.042Z,87.05
2019-06-20T02:44:30.414Z,86.55
2019-06-20T02:45:26.057Z,86.65
2019-06-20T02:46:25.004Z,86.24
2019-06-20T02:47:24.986Z,86.15
2019-06-20T02:48:24.980Z,86.55
2019-06-20T02:49:25.021Z,86.35
2019-06-20T02:50:24.955Z,86.55
2019-06-20T02:51:24.948Z,86.55
2019-06-20T02:52:24.936Z,86.15
2019-06-20T02:53:24.930Z,86.15
2019-06-20T02:54:24.938Z,86.65
2019-06-20T02:55:24.902Z,87.25
2019-06-20T02:56:24.890Z,86.95
2019-06-20T02:57:24.879Z,87.19
2019-06-20T02:58:24.864Z,87.29
2019-06-20T02:59:24.854Z,87.05
2019-06-20T03:00:24.868Z,86.99
2019-06-20T03:01:24.832Z,87.35
2019-06-20T03:02:24.818Z,86.44
2019-06-20T03:03:24.809Z,86.79
2019-06-20T03:04:24.826Z,87.15
2019-06-20T03:05:24.787Z,86.99
2019-06-20T03:06:24.779Z,86.99
2019-06-20T03:08:25.882Z,86.95
2019-06-20T03:09:24.775Z,87.19
2019-06-20T03:10:24.754Z,87.35
2019-06-20T03:11:24.719Z,86.95
2019-06-20T03:12:24.715Z,87.29
2019-06-20T03:13:24.702Z,87.05
2019-06-20T03:14:24.709Z,87.15
2019-06-20T03:15:24.800Z,87.29
2019-06-20T03:16:24.667Z,86.95
2019-06-20T03:17:24.656Z,86.95
2019-06-20T03:18:24.647Z,87.29
2019-06-20T03:19:24.639Z,87.29
2019-06-20T03:20:24.653Z,87.29
2019-06-20T03:21:24.638Z,87.90
2019-06-20T03:22:24.664Z,87.90
2019-06-20T03:23:24.684Z,88.30
2019-06-20T03:24:24.587Z,88.50
2019-06-20T03:25:25.139Z,88.70
2019-06-20T03:26:24.574Z,88.60
2019-06-20T03:27:24.548Z,88.70
2019-06-20T03:28:24.539Z,88.54
2019-06-20T03:29:24.521Z,88.70
2019-06-20T03:30:24.516Z,88.34
2019-06-20T03:31:24.534Z,88.14
2019-06-20T03:32:24.492Z,88.81
2019-06-20T03:33:24.485Z,88.60
2019-06-20T03:34:24.477Z,88.60
2019-06-20T03:35:24.493Z,89.21
2019-06-20T03:36:24.483Z,89.31
2019-06-20T03:37:24.434Z,88.95
2019-06-20T03:38:24.430Z,88.70
2019-06-20T03:39:24.413Z,88.95
2019-06-20T03:40:24.405Z,89.01
2019-06-20T03:41:24.418Z,88.60
2019-06-20T03:42:24.378Z,88.85
2019-06-20T03:43:24.370Z,89.15
2019-06-20T03:44:24.372Z,89.21
2019-06-20T03:45:24.349Z,89.61
2019-06-20T03:46:24.364Z,88.75
2019-06-20T03:47:24.343Z,89.01
2019-06-20T03:48:24.367Z,88.95
2019-06-20T03:49:24.304Z,89.05
2019-06-20T03:50:24.291Z,89.41
2019-06-20T03:51:24.329Z,89.55
2019-06-20T03:52:24.322Z,89.65
2019-06-20T03:53:24.260Z,89.25
2019-06-20T03:54:24.264Z,89.55
2019-06-20T03:55:24.238Z,89.55
2019-06-20T03:56:24.346Z,89.45
2019-06-20T03:57:24.210Z,89.55
2019-06-20T03:58:24.202Z,89.45
2019-06-20T03:59:24.196Z,89.75
2019-06-20T04:00:24.184Z,89.55
2019-06-20T04:01:24.209Z,89.25
2019-06-20T04:02:24.161Z,89.35
2019-06-20T04:03:24.191Z,89.91
2019-06-20T04:04:24.140Z,89.65
2019-06-20T04:05:24.137Z,88.95
2019-06-20T04:06:24.121Z,89.15
2019-06-20T04:07:24.159Z,89.35
2019-06-20T04:08:24.096Z,89.41
2019-06-20T04:09:24.082Z,89.45
2019-06-20T04:10:24.070Z,89.91
2019-06-20T04:11:24.065Z,89.01
2019-06-20T04:12:24.086Z,89.41
2019-06-20T04:13:24.039Z,88.95
2019-06-20T04:14:24.029Z,89.01
2019-06-20T04:15:24.015Z,89.31
2019-06-20T04:16:24.007Z,88.81
2019-06-20T04:17:24.041Z,88.40
2019-06-20T04:18:23.983Z,88.20
2019-06-20T04:19:23.973Z,88.60
2019-06-20T04:20:23.961Z,88.70
2019-06-20T04:21:23.964Z,88.90
2019-06-20T04:22:23.972Z,88.70
2019-06-20T04:23:23.927Z,88.40
2019-06-20T04:24:23.915Z,88.66
2019-06-20T04:25:23.905Z,88.26
2019-06-20T04:26:23.903Z,88.40
2019-06-20T04:27:23.923Z,88.46
2019-06-20T04:28:23.871Z,88.00
2019-06-20T04:29:23.866Z,88.10
2019-06-20T04:30:23.854Z,88.26
2019-06-20T04:31:23.841Z,88.56
2019-06-20T04:32:23.860Z,88.76
2019-06-20T04:33:23.870Z,88.26
2019-06-20T04:34:23.804Z,88.30
2019-06-20T04:35:23.792Z,88.36
2019-06-20T04:36:23.786Z,88.26
2019-06-20T04:37:23.787Z,88.66
2019-06-20T04:38:23.800Z,88.26
2019-06-20T04:39:23.774Z,88.66
2019-06-20T04:40:23.740Z,88.36
2019-06-20T04:41:23.732Z,88.62
2019-06-20T04:42:23.717Z,87.71
2019-06-20T04:43:23.731Z,87.76
2019-06-20T04:44:23.705Z,88.36
2019-06-20T04:45:34.688Z,88.36
2019-06-20T04:46:24.674Z,88.56
2019-06-20T04:47:23.665Z,88.56
2019-06-20T04:48:23.675Z,88.66
2019-06-20T04:49:23.712Z,88.66
2019-06-20T04:50:23.637Z,88.66
2019-06-20T04:51:23.753Z,88.56
2019-06-20T04:52:23.605Z,88.36
2019-06-20T04:53:23.799Z,88.36
2019-06-20T04:54:23.589Z,88.36
2019-06-20T04:55:23.579Z,88.76
2019-06-20T04:56:23.591Z,89.06
2019-06-20T04:57:23.550Z,88.90
2019-06-20T04:58:23.592Z,89.26
2019-06-20T04:59:23.593Z,88.96
2019-06-20T05:00:23.520Z,88.56
2019-06-20T05:01:23.519Z,88.02
2019-06-20T05:02:23.506Z,88.06
2019-06-20T05:03:23.561Z,88.62
2019-06-20T05:04:23.477Z,88.42
2019-06-20T05:05:23.462Z,87.71
2019-06-20T05:06:23.479Z,87.27
2019-06-20T05:07:23.453Z,87.17
2019-06-20T05:08:23.465Z,87.01
2019-06-20T05:09:23.431Z,86.81
2019-06-20T05:10:23.411Z,86.81
2019-06-20T05:11:23.395Z,87.21
2019-06-20T05:12:23.389Z,86.91
2019-06-20T05:13:23.400Z,87.11
2019-06-20T05:14:23.392Z,87.31
2019-06-20T05:15:23.357Z,87.41
2019-06-20T05:16:23.349Z,87.41
2019-06-20T05:17:23.332Z,87.01
2019-06-20T05:18:23.335Z,87.01
2019-06-20T05:19:23.340Z,87.01
2019-06-20T05:20:23.299Z,87.21
2019-06-20T05:21:23.285Z,87.71
2019-06-20T05:22:23.278Z,87.11
2019-06-20T05:23:23.269Z,87.01
2019-06-20T05:24:25.572Z,86.91
2019-06-20T05:25:23.246Z,86.87
2019-06-20T05:26:23.235Z,86.77
2019-06-20T05:27:23.241Z,86.77
2019-06-20T05:28:23.232Z,86.30
2019-06-20T05:29:23.226Z,86.66
2019-06-20T05:30:23.187Z,86.16
2019-06-20T05:31:23.177Z,85.96
2019-06-20T05:32:23.185Z,86.51
2019-06-20T05:33:23.162Z,86.10
2019-06-20T05:34:23.175Z,86.21
2019-06-20T05:35:23.139Z,86.30
2019-06-20T05:36:23.124Z,86.06
2019-06-20T05:37:23.114Z,86.57
2019-06-20T05:38:23.105Z,86.30
2019-06-20T05:39:23.117Z,86.51
2019-06-20T05:40:23.123Z,86.00
2019-06-20T05:41:23.068Z,86.51
2019-06-20T05:42:23.067Z,86.57
2019-06-20T05:43:23.073Z,86.21
2019-06-20T05:44:23.052Z,86.06
2019-06-20T05:45:23.079Z,86.16
2019-06-20T05:46:23.016Z,86.06
2019-06-20T05:47:23.649Z,86.46
2019-06-20T05:48:22.999Z,86.61
2019-06-20T05:49:23.029Z,86.66
2019-06-20T05:50:22.996Z,86.66
2019-06-20T05:51:23.992Z,85.16
2019-06-20T05:52:22.946Z,84.81
2019-06-20T05:53:22.935Z,85.46
2019-06-20T05:54:22.922Z,85.36
2019-06-20T05:55:22.937Z,85.56
2019-06-20T05:56:22.904Z,86.46
2019-06-20T05:57:22.889Z,85.56
2019-06-20T05:58:22.885Z,85.86
2019-06-20T05:59:22.873Z,85.92
2019-06-20T06:00:22.887Z,85.31
2019-06-20T06:01:22.866Z,85.31
2019-06-20T06:02:22.848Z,84.61
2019-06-20T06:03:22.842Z,84.21
2019-06-20T06:04:22.817Z,84.21
2019-06-20T06:05:22.841Z,84.21
2019-06-20T06:06:22.805Z,84.01
2019-06-20T06:07:23.077Z,84.31
2019-06-20T06:08:22.783Z,84.41
2019-06-20T06:09:22.758Z,84.91
2019-06-20T06:10:23.255Z,84.41
2019-06-20T06:11:22.768Z,84.31
2019-06-20T06:12:22.734Z,83.81
2019-06-20T06:13:22.725Z,84.01
2019-06-20T06:14:22.722Z,83.71
2019-06-20T06:15:22.714Z,84.65
2019-06-20T06:16:27.306Z,84.25
2019-06-20T06:17:23.673Z,84.81
2019-06-20T06:18:22.666Z,84.51
2019-06-20T06:19:22.655Z,83.61
2019-06-20T06:20:22.646Z,84.21
2019-06-20T06:21:22.659Z,84.31
2019-06-20T06:22:22.622Z,83.51
2019-06-20T06:23:22.621Z,83.37
2019-06-20T06:24:22.607Z,83.61
2019-06-20T06:25:22.582Z,83.71
2019-06-20T06:26:22.615Z,83.51
2019-06-20T06:27:22.564Z,83.76
2019-06-20T06:28:22.551Z,82.86
2019-06-20T06:29:22.540Z,83.37
2019-06-20T06:30:22.533Z,83.11
2019-06-20T06:31:22.550Z,82.46
2019-06-20T06:32:39.026Z,82.56
2019-06-20T06:33:23.497Z,82.40
2019-06-20T06:34:22.483Z,82.56
2019-06-20T06:35:22.474Z,83.00
2019-06-20T06:36:22.497Z,83.20
2019-06-20T06:37:22.451Z,82.90
2019-06-20T06:38:22.561Z,83.11
2019-06-20T06:39:22.427Z,82.70
2019-06-20T06:40:22.445Z,83.40
2019-06-20T06:41:22.439Z,83.31
2019-06-20T06:42:22.426Z,83.40
2019-06-20T06:43:22.385Z,83.71
2019-06-20T06:44:22.375Z,83.97
2019-06-20T06:45:22.371Z,83.47
2019-06-20T06:46:22.356Z,83.06
2019-06-20T06:47:22.378Z,82.56
2019-06-20T06:48:22.340Z,82.32
2019-06-20T06:49:22.339Z,82.36
2019-06-20T06:50:22.321Z,82.52
2019-06-20T06:51:22.296Z,82.46
2019-06-20T06:52:22.314Z,82.32
2019-06-20T06:54:22.267Z,81.82
2019-06-20T06:55:22.256Z,82.62
2019-06-20T06:56:22.253Z,82.72
2019-06-20T06:57:22.272Z,82.02
2019-06-20T06:58:22.223Z,82.02
2019-06-20T06:59:22.256Z,81.52
2019-06-20T07:00:22.237Z,81.56
2019-06-20T07:01:22.186Z,81.72
2019-06-20T07:02:22.203Z,82.06
2019-06-20T07:03:22.164Z,81.96
2019-06-20T07:04:22.152Z,82.12
2019-06-20T07:05:22.148Z,82.16
2019-06-20T07:06:22.137Z,81.52
2019-06-20T07:07:22.122Z,81.52
2019-06-20T07:08:22.147Z,81.56
2019-06-20T07:09:22.113Z,81.21
2019-06-20T07:10:22.088Z,81.32
2019-06-20T07:11:22.079Z,81.32
2019-06-20T07:12:22.068Z,81.21
2019-06-20T07:13:22.078Z,81.62
2019-06-20T07:14:22.049Z,80.41
2019-06-20T07:15:22.042Z,80.21
2019-06-20T07:16:22.031Z,80.21
2019-06-20T07:17:22.011Z,79.30
2019-06-20T07:18:22.039Z,79.50
2019-06-20T07:19:21.993Z,79.41
2019-06-20T07:20:21.976Z,78.70
2019-06-20T07:21:21.971Z,79.50
2019-06-20T07:22:21.966Z,79.44
2019-06-20T07:23:21.984Z,79.50
2019-06-20T07:24:21.931Z,79.30
2019-06-20T07:25:21.923Z,78.50
2019-06-20T07:26:21.912Z,78.80
2019-06-20T07:27:21.903Z,79.00
2019-06-20T07:28:21.927Z,79.30
2019-06-20T07:29:21.878Z,78.06
2019-06-20T07:30:22.045Z,77.66
2019-06-20T07:31:21.853Z,78.00
2019-06-20T07:32:21.843Z,78.20
2019-06-20T07:33:21.869Z,77.80
2019-06-20T07:34:21.834Z,77.20
2019-06-20T07:35:21.816Z,77.70
2019-06-20T07:36:21.804Z,77.90
2019-06-20T07:37:21.809Z,78.40
2019-06-20T07:38:21.782Z,77.70
2019-06-20T07:39:21.788Z,77.76
2019-06-20T07:40:21.762Z,78.56
2019-06-20T07:41:21.749Z,78.27
2019-06-20T07:42:22.202Z,77.12
2019-06-20T07:43:21.738Z,77.42
2019-06-20T07:44:21.744Z,75.92
2019-06-20T07:45:21.714Z,75.55
2019-06-20T07:46:21.690Z,76.56
2019-06-20T07:47:21.685Z,76.02
2019-06-20T07:48:21.685Z,76.35
2019-06-20T07:49:21.688Z,75.51
2019-06-20T07:50:21.647Z,75.21
2019-06-20T07:51:21.653Z,75.11
2019-06-20T07:52:21.620Z,75.92
2019-06-20T07:53:21.611Z,75.21
2019-06-20T07:54:21.635Z,74.68
2019-06-20T07:55:21.591Z,73.87
2019-06-20T07:56:21.588Z,74.01
2019-06-20T07:57:21.569Z,73.50
2019-06-20T07:58:21.560Z,73.77
2019-06-20T07:59:21.580Z,74.68
2019-06-20T08:00:21.655Z,74.51
2019-06-20T08:01:21.537Z,74.88
2019-06-20T08:02:21.534Z,73.97
2019-06-20T08:03:21.503Z,74.37
2019-06-20T08:04:21.610Z,74.31
2019-06-20T08:05:21.509Z,74.24
2019-06-20T08:06:21.481Z,75.05
2019-06-20T08:07:21.454Z,75.15
2019-06-20T08:08:21.441Z,73.94
2019-06-20T08:09:22.228Z,74.81
2019-06-20T08:10:21.456Z,75.45
2019-06-20T08:11:21.416Z,75.15
2019-06-20T08:12:21.420Z,75.18
2019-06-20T08:13:21.389Z,75.79
2019-06-20T08:14:21.385Z,75.85
2019-06-20T08:15:21.397Z,75.89
2019-06-20T08:16:22.147Z,76.79
2019-06-20T08:17:34.876Z,76.76
2019-06-20T08:18:22.331Z,75.99
2019-06-20T08:19:21.321Z,76.69
2019-06-20T08:20:21.346Z,76.49
2019-06-20T08:21:21.305Z,77.29
2019-06-20T08:22:21.289Z,77.50
2019-06-20T08:23:21.299Z,77.90
2019-06-20T08:24:21.345Z,77.50
2019-06-20T08:25:21.288Z,78.14
2019-06-20T08:26:21.252Z,77.90
2019-06-20T08:27:21.246Z,77.83
2019-06-20T08:28:21.223Z,77.63
2019-06-20T08:29:21.592Z,77.70
2019-06-20T08:30:21.237Z,77.90
2019-06-20T08:31:21.206Z,77.29
2019-06-20T08:32:21.190Z,77.70
2019-06-20T08:33:21.179Z,77.90
2019-06-20T08:34:21.171Z,77.70
2019-06-20T08:35:21.215Z,77.90
2019-06-20T08:36:21.138Z,77.90
2019-06-20T08:37:21.156Z,77.90
2019-06-20T08:38:21.126Z,77.90
2019-06-20T08:39:21.124Z,77.70
2019-06-20T08:40:21.093Z,77.56
2019-06-20T08:41:21.112Z,78.27
2019-06-20T08:42:21.071Z,76.32
2019-06-20T08:43:21.060Z,76.86
2019-06-20T08:44:21.068Z,76.02
2019-06-20T08:45:21.037Z,75.92
2019-06-20T08:46:21.049Z,75.58
2019-06-20T08:47:21.014Z,74.98
2019-06-20T08:48:21.008Z,75.18
2019-06-20T08:49:20.991Z,74.74
2019-06-20T08:50:21.008Z,74.30
2019-06-20T08:51:21.021Z,73.27
2019-06-20T08:52:20.961Z,72.80
2019-06-20T08:53:20.973Z,74.20
2019-06-20T08:54:20.950Z,73.70
2019-06-20T08:55:20.935Z,74.30
2019-06-20T08:56:20.938Z,73.03
2019-06-20T08:57:23.296Z,73.07
2019-06-20T08:58:20.893Z,72.36
2019-06-20T08:59:24.769Z,72.90
2019-06-20T09:00:20.877Z,72.56
2019-06-20T09:01:20.926Z,73.36
2019-06-20T09:02:20.864Z,72.33
2019-06-20T09:03:20.934Z,71.73
2019-06-20T09:04:22.530Z,71.23
2019-06-20T09:05:20.818Z,70.62
2019-06-20T09:06:20.809Z,71.03
2019-06-20T09:07:20.849Z,71.36
2019-06-20T09:08:20.784Z,73.03
2019-06-20T09:09:20.776Z,72.23
2019-06-20T09:10:20.763Z,71.53
2019-06-20T09:11:20.760Z,70.43
2019-06-20T09:12:20.757Z,70.62
2019-06-20T09:13:20.740Z,71.30
2019-06-20T09:14:20.717Z,71.39
2019-06-20T09:15:20.788Z,70.29
2019-06-20T09:16:24.613Z,69.93
2019-06-20T09:17:20.754Z,70.53
2019-06-20T09:18:21.631Z,71.53
2019-06-20T09:19:20.670Z,70.53
2019-06-20T09:20:20.645Z,71.53
2019-06-20T09:21:20.637Z,71.66
2019-06-20T09:22:20.666Z,71.83
2019-06-20T09:23:20.613Z,71.43
2019-06-20T09:24:20.606Z,71.33
2019-06-20T09:25:20.591Z,71.43
2019-06-20T09:26:20.580Z,70.53
2019-06-20T09:27:20.591Z,70.93
2019-06-20T09:28:20.558Z,69.89
2019-06-20T09:29:20.551Z,69.12
2019-06-20T09:30:20.541Z,68.89
2019-06-20T09:31:20.533Z,68.99
2019-06-20T09:32:20.508Z,68.52
2019-06-20T09:33:20.540Z,70.09
2019-06-20T09:34:20.489Z,70.19
2019-06-20T09:35:20.479Z,69.93
2019-06-20T09:36:20.571Z,69.59
2019-06-20T09:37:20.459Z,69.39
2019-06-20T09:38:20.464Z,69.69
2019-06-20T09:39:20.435Z,69.69
2019-06-20T09:40:20.420Z,69.69
2019-06-20T09:41:20.426Z,69.59
2019-06-20T09:42:20.410Z,69.59
2019-06-20T09:43:27.523Z,69.29
2019-06-20T09:44:21.379Z,69.23
2019-06-20T09:45:20.391Z,68.76
2019-06-20T09:46:20.351Z,69.26
2019-06-20T09:47:20.343Z,67.79
2019-06-20T09:48:20.358Z,68.19
2019-06-20T09:49:20.329Z,68.89
2019-06-20T09:50:20.319Z,68.89
2019-06-20T09:51:20.296Z,69.59
2019-06-20T09:52:20.290Z,69.79
2019-06-20T09:53:20.325Z,70.19
2019-06-20T09:54:20.275Z,69.76
2019-06-20T09:55:20.260Z,69.86
2019-06-20T09:56:20.247Z,69.06
2019-06-20T09:57:20.236Z,69.56
2019-06-20T09:58:20.218Z,67.59
2019-06-20T09:59:27.513Z,67.39
2019-06-20T10:00:21.196Z,68.05
2019-06-20T10:01:20.207Z,67.36
2019-06-20T10:02:20.185Z,67.52
2019-06-20T10:03:20.174Z,66.72
2019-06-20T10:04:21.607Z,66.72
2019-06-20T10:05:20.139Z,66.75
2019-06-20T10:06:20.134Z,67.16
2019-06-20T10:07:20.125Z,67.46
2019-06-20T10:08:20.117Z,66.86
2019-06-20T10:09:20.136Z,66.75
2019-06-20T10:10:20.241Z,67.16
2019-06-20T10:11:20.101Z,67.02
2019-06-20T10:12:20.063Z,66.42
2019-06-20T10:13:20.062Z,66.29
2019-06-20T10:14:20.195Z,65.79
2019-06-20T10:15:20.042Z,66.22
2019-06-20T10:16:20.021Z,65.99
2019-06-20T10:17:20.008Z,65.69
2019-06-20T10:18:19.998Z,65.62
2019-06-20T10:19:20.010Z,65.72
2019-06-20T10:20:19.979Z,66.29
2019-06-20T10:21:19.960Z,65.83
2019-06-20T10:22:19.979Z,65.62
2019-06-20T10:23:19.973Z,65.42
2019-06-20T10:24:19.925Z,65.42
2019-06-20T10:25:19.943Z,65.59
2019-06-20T10:26:19.903Z,65.42
2019-06-20T10:27:19.915Z,64.49
2019-06-20T10:28:19.921Z,64.59
2019-06-20T10:29:19.877Z,63.49
2019-06-20T10:30:19.900Z,63.39
2019-06-20T10:31:19.845Z,63.39
2019-06-20T10:32:19.845Z,63.46
2019-06-20T10:33:19.828Z,63.23
2019-06-20T10:34:19.819Z,61.51
2019-06-20T10:35:19.862Z,62.20
2019-06-20T10:36:19.794Z,61.00
2019-06-20T10:37:19.786Z,61.90
2019-06-20T10:38:19.789Z,60.80
2019-06-20T10:39:19.763Z,61.80
2019-06-20T10:40:19.782Z,62.18
2019-06-20T10:41:19.734Z,61.27
2019-06-20T10:42:19.732Z,62.87
2019-06-20T10:43:19.716Z,60.80
2019-06-20T10:44:19.709Z,61.54
2019-06-20T10:45:19.748Z,62.43
2019-06-20T10:46:19.687Z,62.40
2019-06-20T10:47:31.687Z,61.33
2019-06-20T10:48:20.668Z,61.54
2019-06-20T10:49:19.657Z,62.37
2019-06-20T10:50:19.648Z,62.27
2019-06-20T10:51:19.654Z,61.65
2019-06-20T10:52:19.689Z,60.55
2019-06-20T10:53:19.625Z,62.48
2019-06-20T10:54:19.619Z,61.18
2019-06-20T10:55:19.589Z,62.27
2019-06-20T10:56:19.610Z,62.57
2019-06-20T10:57:19.561Z,61.57
2019-06-20T10:58:19.549Z,60.88
2019-06-20T10:59:19.533Z,61.51
2019-06-20T11:00:30.189Z,60.78
2019-06-20T11:01:20.655Z,60.75
2019-06-20T11:02:19.545Z,60.95
2019-06-20T11:03:19.859Z,59.85
2019-06-20T11:04:19.479Z,59.45
2019-06-20T11:05:19.484Z,61.47
2019-06-20T11:06:19.481Z,61.08
2019-06-20T11:07:19.448Z,59.75
2019-06-20T11:08:19.438Z,60.55
2019-06-20T11:09:19.434Z,59.75
2019-06-20T11:10:19.442Z,60.65
2019-06-20T11:11:19.446Z,59.45
2019-06-20T11:12:19.396Z,59.05
2019-06-20T11:13:19.404Z,60.25
2019-06-20T11:14:19.380Z,59.68
2019-06-20T11:15:19.361Z,59.98
2019-06-20T11:16:19.432Z,61.08
2019-06-20T11:17:19.374Z,60.55
2019-06-20T11:18:19.342Z,60.95
2019-06-20T11:19:19.326Z,60.72
2019-06-20T11:20:19.319Z,60.99
2019-06-20T11:21:19.327Z,60.29
2019-06-20T11:22:19.300Z,58.62
2019-06-20T11:23:19.302Z,60.32
2019-06-20T11:24:19.274Z,59.99
2019-06-20T11:25:20.118Z,59.99
2019-06-20T11:26:19.242Z,59.89
2019-06-20T11:27:19.236Z,60.09
2019-06-20T11:28:19.252Z,58.89
2019-06-20T11:29:19.209Z,59.19
2019-06-20T11:30:19.251Z,58.40
2019-06-20T11:31:19.192Z,58.70
2019-06-20T11:32:19.209Z,57.67
2019-06-20T11:33:19.208Z,57.57
2019-06-20T11:34:19.144Z,58.27
2019-06-20T11:35:19.134Z,58.80
2019-06-20T11:36:19.169Z,58.23
2019-06-20T11:37:19.119Z,58.72
2019-06-20T11:38:19.146Z,59.02
2019-06-20T11:39:19.092Z,57.86
2019-06-20T11:40:19.086Z,56.85
2019-06-20T11:41:19.133Z,56.26
2019-06-20T11:42:19.068Z,57.06
2019-06-20T11:43:19.100Z,57.13
2019-06-20T11:44:19.043Z,56.26
2019-06-20T11:45:19.024Z,56.36
2019-06-20T11:46:19.050Z,57.06
2019-06-20T11:47:20.622Z,57.09
2019-06-20T11:48:19.033Z,56.88
2019-06-20T11:49:18.982Z,57.98
2019-06-20T11:50:18.973Z,58.98
2019-06-20T11:51:18.981Z,59.05
2019-06-20T11:52:18.946Z,58.65
2019-06-20T11:53:18.960Z,58.28
2019-06-20T11:54:18.928Z,57.88
2019-06-20T11:55:18.924Z,58.48
2019-06-20T11:56:18.907Z,58.58
2019-06-20T11:57:18.894Z,58.68
2019-06-20T11:58:18.920Z,58.78
2019-06-20T11:59:18.868Z,58.88
2019-06-20T12:00:18.860Z,59.35
2019-06-20T12:01:32.233Z,57.78
2019-06-20T12:02:19.839Z,58.28
2019-06-20T12:03:18.852Z,59.48
2019-06-20T12:04:18.824Z,58.38
2019-06-20T12:05:18.817Z,58.28
2019-06-20T12:06:18.793Z,58.88
2019-06-20T12:07:18.777Z,58.81
2019-06-20T12:08:18.799Z,58.81
2019-06-20T12:09:18.772Z,59.53
2019-06-20T12:10:18.748Z,60.24
2019-06-20T12:11:18.732Z,59.14
2019-06-20T12:12:18.731Z,59.81
2019-06-20T12:13:18.724Z,59.18
2019-06-20T12:14:18.735Z,58.98
2019-06-20T12:15:18.724Z,58.48
2019-06-20T12:16:18.677Z,59.08
2019-06-20T12:17:18.704Z,59.98
2019-06-20T12:18:18.699Z,58.36
2019-06-20T12:19:18.682Z,57.76
2019-06-20T12:20:18.635Z,57.39
2019-06-20T12:21:18.645Z,59.51
2019-06-20T12:22:18.609Z,60.11
2019-06-20T12:23:18.613Z,60.00
2019-06-20T12:24:18.621Z,60.11
2019-06-20T12:25:18.598Z,60.17
2019-06-20T12:26:18.570Z,59.58
2019-06-20T12:27:18.567Z,59.18
2019-06-20T12:28:18.555Z,58.78
2019-06-20T12:29:18.580Z,59.08
2019-06-20T12:30:18.557Z,59.70
2019-06-20T12:31:19.967Z,59.31
2019-06-20T12:32:18.520Z,59.83
2019-06-20T12:33:18.588Z,60.00
2019-06-20T12:34:18.509Z,59.31
2019-06-20T12:35:18.485Z,59.51
2019-06-20T12:36:18.469Z,59.01
2019-06-20T12:37:18.459Z,60.11
2019-06-20T12:38:18.442Z,58.88
2019-06-20T12:39:18.503Z,59.08
2019-06-20T12:40:18.465Z,59.28
2019-06-20T12:41:18.412Z,59.68
2019-06-20T12:42:18.406Z,59.95
2019-06-20T12:43:18.599Z,58.75
2019-06-20T12:44:18.412Z,58.98
2019-06-20T12:45:18.373Z,59.78
2019-06-20T12:46:18.354Z,60.05
2019-06-20T12:47:18.355Z,59.18
2019-06-20T12:48:18.328Z,59.38
2019-06-20T12:49:18.331Z,60.68
2019-06-20T12:50:18.344Z,59.61
2019-06-20T12:51:18.290Z,60.08
2019-06-20T12:52:18.294Z,59.88
2019-06-20T12:53:18.277Z,59.78
2019-06-20T12:54:18.261Z,59.18
2019-06-20T12:55:18.299Z,59.51
2019-06-20T12:56:18.247Z,60.71